Time;durP1;ratioP1;P1;durP2;ratioP2;P2;SDS_P1;SDS_P2;PMS_P1;PMS_P2;Temp;Humidity;BMP_temperature;BMP_pressure;BME280_temperature;BME280_humidity;BME280_pressure;Samples;Min_cycle;Max_cycle;Signal;HPM_P1;HPM_P2
2023/09/18 00:01:56;;;;;;;;;;;;;;;;;;5093854;28;1010;-66
2023/09/18 00:04:22;;;;;;;;;;;;;;;;;;5093787;28;998;-65
2023/09/18 00:06:47;;;;;;;;;;;;;;;;;;5093501;28;899;-65
2023/09/18 00:09:13;;;;;;;;;;;;;;;;;;5093436;28;964;-66
2023/09/18 00:11:39;;;;;;;;;;;;;;;;;;5093641;28;1272;-66
2023/09/18 00:14:04;;;;;;;;;;;;;;;;;;5090655;28;1901;-65
2023/09/18 00:16:30;;;;;;;;;;;;;;;;;;5092525;28;840;-65
2023/09/18 00:18:55;;;;;;;;;;;;;;;;;;5091953;28;1050;-65
2023/09/18 00:21:20;;;;;;;;;;;;;;;;;;5090962;28;1375;-65
2023/09/18 00:23:46;;;;;;;;;;;;;;;;;;5092016;28;911;-65
2023/09/18 00:26:11;;;;;;;;;;;;;;;;;;5091796;28;857;-65
2023/09/18 00:28:36;;;;;;;;;;;;;;;;;;5092733;28;856;-65
2023/09/18 00:31:02;;;;;;;;;;;;;;;;;;5090215;28;872;-66
2023/09/18 00:33:27;;;;;;;;;;;;;;;;;;5092321;28;1901;-65
2023/09/18 00:35:53;;;;;;;;;;;;;;;;;;5091990;28;840;-65
2023/09/18 00:38:19;;;;;;;;;;;;;;;;;;5091903;28;1002;-65
2023/09/18 00:40:44;;;;;;;;;;;;;;;;;;5090649;28;1515;-65
2023/09/18 00:43:10;;;;;;;;;;;;;;;;;;5090238;28;900;-65
2023/09/18 00:45:38;;;;;;;;;;;;;;;;;;5091881;28;896;-65
2023/09/18 00:48:03;;;;;;;;;;;;;;;;;;5091282;28;1239;-65
2023/09/18 00:50:28;;;;;;;;;;;;;;;;;;5091882;28;892;-65
2023/09/18 00:52:54;;;;;;;;;;;;;;;;;;5091261;28;790;-65
2023/09/18 00:55:19;;;;;;;;;;;;;;;;;;5091336;28;1939;-65
2023/09/18 00:57:45;;;;;;;;;;;;;;;;;;5090071;28;1258;-65
2023/09/18 01:00:16;;;;;;;;;;;;;;;;;;5108713;28;1167;-65
2023/09/18 01:02:42;;;;;;;;;;;;;;;;;;5105355;28;1147;-65
2023/09/18 01:05:07;;;;;;;;;;;;;;;;;;5092493;28;1230;-65
2023/09/18 01:07:33;;;;;;;;;;;;;;;;;;5094969;28;1163;-65
2023/09/18 01:09:58;;;;;;;;;;;;;;;;;;5091616;28;1014;-65
2023/09/18 01:12:27;;;;;;;;;;;;;;;;;;5092251;28;1328;-65
2023/09/18 01:14:52;;;;;;;;;;;;;;;;;;5090100;28;1924;-65
2023/09/18 01:17:18;;;;;;;;;;;;;;;;;;5092440;28;1133;-65
2023/09/18 01:19:45;;;;;;;;;;;;;;;;;;5091966;28;1053;-66
2023/09/18 01:22:11;;;;;;;;;;;;;;;;;;5091428;28;1047;-65
2023/09/18 01:24:37;;;;;;;;;;;;;;;;;;5092739;28;943;-65
2023/09/18 01:27:04;;;;;;;;;;;;;;;;;;5091565;28;907;-66
2023/09/18 01:29:29;;;;;;;;;;;;;;;;;;5089704;28;1059;-65
2023/09/18 01:31:55;;;;;;;;;;;;;;;;;;5090099;28;1199;-66
2023/09/18 01:34:22;;;;;;;;;;;;;;;;;;5090272;28;1907;-65
2023/09/18 01:36:49;;;;;;;;;;;;;;;;;;5091153;28;908;-65
2023/09/18 01:39:15;;;;;;;;;;;;;;;;;;5092149;28;947;-66
2023/09/18 01:41:41;;;;;;;;;;;;;;;;;;5091807;28;1061;-65
2023/09/18 01:44:06;;;;;;;;;;;;;;;;;;5090374;28;899;-65
2023/09/18 01:46:38;;;;;;;;;;;;;;;;;;5090643;28;1092;-65
2023/09/18 01:49:03;;;;;;;;;;;;;;;;;;5091915;28;821;-65
2023/09/18 01:51:29;;;;;;;;;;;;;;;;;;5092573;28;849;-66
2023/09/18 01:53:56;;;;;;;;;;;;;;;;;;5091411;28;1898;-65
2023/09/18 01:56:21;;;;;;;;;;;;;;;;;;5090650;28;840;-66
2023/09/18 01:58:46;;;;;;;;;;;;;;;;;;5072710;28;1373;-66
2023/09/18 02:01:11;;;;;;;;;;;;;;;;;;5090270;28;931;-65
2023/09/18 02:03:41;;;;;;;;;;;;;;;;;;5091116;28;911;-65
2023/09/18 02:06:07;;;;;;;;;;;;;;;;;;5088677;28;839;-65
2023/09/18 02:08:32;;;;;;;;;;;;;;;;;;5088913;28;1155;-65
2023/09/18 02:10:57;;;;;;;;;;;;;;;;;;5088421;28;1191;-65
2023/09/18 02:13:23;;;;;;;;;;;;;;;;;;5101213;28;1164;-65
2023/09/18 02:15:48;;;;;;;;;;;;;;;;;;5093911;28;1973;-65
2023/09/18 02:18:15;;;;;;;;;;;;;;;;;;5087808;28;1210;-65
2023/09/18 02:20:41;;;;;;;;;;;;;;;;;;5089904;28;1219;-65
2023/09/18 02:23:06;;;;;;;;;;;;;;;;;;5090694;28;876;-65
2023/09/18 02:25:31;;;;;;;;;;;;;;;;;;5090230;28;943;-65
2023/09/18 02:27:57;;;;;;;;;;;;;;;;;;5090258;28;1011;-64
2023/09/18 02:30:22;;;;;;;;;;;;;;;;;;5089130;28;924;-65
2023/09/18 02:32:48;;;;;;;;;;;;;;;;;;5090910;28;888;-64
2023/09/18 02:35:13;;;;;;;;;;;;;;;;;;5089955;28;1952;-64
2023/09/18 02:37:38;;;;;;;;;;;;;;;;;;5091069;28;864;-67
2023/09/18 02:40:05;;;;;;;;;;;;;;;;;;5091466;28;994;-66
2023/09/18 02:42:30;;;;;;;;;;;;;;;;;;5094634;28;804;-65
2023/09/18 02:44:55;;;;;;;;;;;;;;;;;;5094609;28;931;-66
2023/09/18 02:47:20;;;;;;;;;;;;;;;;;;5093218;28;1294;-66
2023/09/18 02:49:46;;;;;;;;;;;;;;;;;;5093432;28;1230;-65
2023/09/18 02:52:11;;;;;;;;;;;;;;;;;;5094765;28;805;-65
2023/09/18 02:54:37;;;;;;;;;;;;;;;;;;5093454;28;1893;-65
2023/09/18 02:57:02;;;;;;;;;;;;;;;;;;5093321;28;1236;-65
2023/09/18 02:59:27;;;;;;;;;;;;;;;;;;5095382;28;930;-65
2023/09/18 03:01:52;;;;;;;;;;;;;;;;;;5093630;28;800;-66
2023/09/18 03:04:18;;;;;;;;;;;;;;;;;;5093084;28;1170;-65
2023/09/18 03:06:43;;;;;;;;;;;;;;;;;;5094045;28;820;-66
2023/09/18 03:09:09;;;;;;;;;;;;;;;;;;5094201;28;946;-66
2023/09/18 03:11:34;;;;;;;;;;;;;;;;;;5094564;28;1156;-65
2023/09/18 03:14:00;;;;;;;;;;;;;;;;;;5094034;28;1906;-66
2023/09/18 03:16:25;;;;;;;;;;;;;;;;;;5093388;28;1150;-65
2023/09/18 03:18:50;;;;;;;;;;;;;;;;;;5094256;28;959;-65
2023/09/18 03:21:15;;;;;;;;;;;;;;;;;;5094732;28;950;-65
2023/09/18 03:23:40;;;;;;;;;;;;;;;;;;5094394;28;990;-66
2023/09/18 03:26:06;;;;;;;;;;;;;;;;;;5094234;28;971;-65
2023/09/18 03:28:31;;;;;;;;;;;;;;;;;;5092208;28;1027;-66
2023/09/18 03:30:58;;;;;;;;;;;;;;;;;;5092986;28;907;-65
2023/09/18 03:33:23;;;;;;;;;;;;;;;;;;5093491;28;855;-65
2023/09/18 03:35:49;;;;;;;;;;;;;;;;;;5092990;28;1914;-64
2023/09/18 03:38:15;;;;;;;;;;;;;;;;;;5091758;28;1127;-65
2023/09/18 03:40:40;;;;;;;;;;;;;;;;;;5092750;28;1143;-65
2023/09/18 03:43:07;;;;;;;;;;;;;;;;;;5092267;28;942;-65
2023/09/18 03:45:32;;;;;;;;;;;;;;;;;;5092115;28;796;-65
2023/09/18 03:47:57;;;;;;;;;;;;;;;;;;5091642;28;1242;-65
2023/09/18 03:50:23;;;;;;;;;;;;;;;;;;5092955;28;872;-65
2023/09/18 03:52:48;;;;;;;;;;;;;;;;;;5092488;28;940;-65
2023/09/18 03:55:14;;;;;;;;;;;;;;;;;;5092537;28;1951;-65
2023/09/18 03:57:40;;;;;;;;;;;;;;;;;;5092849;28;812;-66
2023/09/18 04:00:07;;;;;;;;;;;;;;;;;;5092462;28;907;-65
2023/09/18 04:02:32;;;;;;;;;;;;;;;;;;5091261;28;1248;-65
2023/09/18 04:04:58;;;;;;;;;;;;;;;;;;5092173;28;945;-65
2023/09/18 04:07:23;;;;;;;;;;;;;;;;;;5092862;28;833;-66
2023/09/18 04:09:48;;;;;;;;;;;;;;;;;;5093367;28;904;-66
2023/09/18 04:12:14;;;;;;;;;;;;;;;;;;5090683;28;1179;-66
2023/09/18 04:14:39;;;;;;;;;;;;;;;;;;5092695;28;1961;-65
2023/09/18 04:17:05;;;;;;;;;;;;;;;;;;5092540;28;911;-65
2023/09/18 04:19:30;;;;;;;;;;;;;;;;;;5091494;28;1098;-65
2023/09/18 04:21:56;;;;;;;;;;;;;;;;;;5091317;28;1224;-65
2023/09/18 04:24:21;;;;;;;;;;;;;;;;;;5092935;28;809;-65
2023/09/18 04:26:46;;;;;;;;;;;;;;;;;;5092754;28;935;-66
2023/09/18 04:29:12;;;;;;;;;;;;;;;;;;5092579;28;1107;-65
2023/09/18 04:31:38;;;;;;;;;;;;;;;;;;5092735;28;899;-66
2023/09/18 04:34:03;;;;;;;;;;;;;;;;;;5092506;28;1956;-65
2023/09/18 04:36:28;;;;;;;;;;;;;;;;;;5092904;28;899;-65
2023/09/18 04:38:54;;;;;;;;;;;;;;;;;;5092490;28;892;-65
2023/09/18 04:41:19;;;;;;;;;;;;;;;;;;5092903;28;819;-65
2023/09/18 04:43:44;;;;;;;;;;;;;;;;;;5091150;28;1185;-65
2023/09/18 04:46:09;;;;;;;;;;;;;;;;;;5092181;28;864;-65
2023/09/18 04:48:35;;;;;;;;;;;;;;;;;;5091346;28;1147;-66
2023/09/18 04:51:00;;;;;;;;;;;;;;;;;;5092372;28;942;-65
2023/09/18 04:53:29;;;;;;;;;;;;;;;;;;5092945;28;891;-66
2023/09/18 04:55:55;;;;;;;;;;;;;;;;;;5092851;28;1894;-66
2023/09/18 04:58:20;;;;;;;;;;;;;;;;;;5090986;28;860;-66
2023/09/18 05:00:46;;;;;;;;;;;;;;;;;;5090903;28;829;-66
2023/09/18 05:03:11;;;;;;;;;;;;;;;;;;5090417;28;844;-66
2023/09/18 05:05:37;;;;;;;;;;;;;;;;;;5090931;28;1038;-65
2023/09/18 05:08:07;;;;;;;;;;;;;;;;;;5091541;28;892;-66
2023/09/18 05:10:32;;;;;;;;;;;;;;;;;;5091580;28;848;-66
2023/09/18 05:13:02;;;;;;;;;;;;;;;;;;5090874;28;1159;-65
2023/09/18 05:15:32;;;;;;;;;;;;;;;;;;5091204;28;1922;-65
2023/09/18 05:17:58;;;;;;;;;;;;;;;;;;5091028;28;951;-65
2023/09/18 05:20:24;;;;;;;;;;;;;;;;;;5091772;28;868;-65
2023/09/18 05:22:50;;;;;;;;;;;;;;;;;;5091341;28;1001;-65
2023/09/18 05:25:16;;;;;;;;;;;;;;;;;;5091305;28;836;-65
2023/09/18 05:27:44;;;;;;;;;;;;;;;;;;5089287;28;953;-65
2023/09/18 05:30:13;;;;;;;;;;;;;;;;;;5091079;28;805;-65
2023/09/18 05:32:38;;;;;;;;;;;;;;;;;;5091215;28;883;-65
2023/09/18 05:35:06;;;;;;;;;;;;;;;;;;5090327;28;1961;-67
2023/09/18 05:37:31;;;;;;;;;;;;;;;;;;5090965;28;872;-65
2023/09/18 05:39:56;;;;;;;;;;;;;;;;;;5089278;28;890;-65
2023/09/18 05:42:22;;;;;;;;;;;;;;;;;;5091737;28;887;-66
2023/09/18 05:44:47;;;;;;;;;;;;;;;;;;5090990;28;923;-65
2023/09/18 05:47:13;;;;;;;;;;;;;;;;;;5089048;28;1203;-65
2023/09/18 05:49:38;;;;;;;;;;;;;;;;;;5089417;28;1134;-65
2023/09/18 05:52:03;;;;;;;;;;;;;;;;;;5090396;28;936;-65
2023/09/18 05:54:28;;;;;;;;;;;;;;;;;;5089936;28;1902;-66
2023/09/18 05:56:54;;;;;;;;;;;;;;;;;;5090670;28;858;-65
2023/09/18 05:59:20;;;;;;;;;;;;;;;;;;5090208;28;856;-66
2023/09/18 06:01:45;;;;;;;;;;;;;;;;;;5072974;28;1317;-67
2023/09/18 06:04:11;;;;;;;;;;;;;;;;;;5089292;28;1417;-65
2023/09/18 06:06:36;;;;;;;;;;;;;;;;;;5090143;28;1269;-65
2023/09/18 06:09:02;;;;;;;;;;;;;;;;;;5089510;28;865;-65
2023/09/18 06:11:27;;;;;;;;;;;;;;;;;;5089809;28;1627;-66
2023/09/18 06:13:53;;;;;;;;;;;;;;;;;;5089602;28;1906;-65
2023/09/18 06:16:18;;;;;;;;;;;;;;;;;;5094530;28;892;-65
2023/09/18 06:18:44;;;;;;;;;;;;;;;;;;5076894;28;1576;-65
2023/09/18 06:21:09;;;;;;;;;;;;;;;;;;5094763;28;852;-65
2023/09/18 06:23:35;;;;;;;;;;;;;;;;;;5093388;28;837;-65
2023/09/18 06:26:01;;;;;;;;;;;;;;;;;;5093902;28;826;-65
2023/09/18 06:28:26;;;;;;;;;;;;;;;;;;5094770;28;848;-65
2023/09/18 06:30:53;;;;;;;;;;;;;;;;;;5092973;28;836;-65
2023/09/18 06:33:19;;;;;;;;;;;;;;;;;;5094250;28;1139;-65
2023/09/18 06:35:45;;;;;;;;;;;;;;;;;;5094217;28;1915;-65
2023/09/18 06:38:12;;;;;;;;;;;;;;;;;;5093971;28;840;-65
2023/09/18 06:40:37;;;;;;;;;;;;;;;;;;5093951;28;903;-65
2023/09/18 06:43:03;;;;;;;;;;;;;;;;;;5094754;28;1165;-65
2023/09/18 06:45:28;;;;;;;;;;;;;;;;;;5093781;28;1524;-64
2023/09/18 06:47:53;;;;;;;;;;;;;;;;;;5094678;28;1152;-64
2023/09/18 06:50:19;;;;;;;;;;;;;;;;;;5095042;28;825;-64
2023/09/18 06:52:44;;;;;;;;;;;;;;;;;;5094925;28;1081;-65
2023/09/18 06:55:10;;;;;;;;;;;;;;;;;;5092067;28;1898;-64
2023/09/18 06:57:35;;;;;;;;;;;;;;;;;;5093838;28;918;-64
2023/09/18 07:00:00;;;;;;;;;;;;;;;;;;5093512;28;860;-64
2023/09/18 07:02:27;;;;;;;;;;;;;;;;;;5093272;28;1186;-65
2023/09/18 07:04:52;;;;;;;;;;;;;;;;;;5090590;28;1061;-64
2023/09/18 07:07:24;;;;;;;;;;;;;;;;;;5092329;28;1297;-64
2023/09/18 07:09:50;;;;;;;;;;;;;;;;;;5093567;28;829;-65
2023/09/18 07:12:15;;;;;;;;;;;;;;;;;;5093029;28;1202;-64
2023/09/18 07:14:40;;;;;;;;;;;;;;;;;;5093108;28;1960;-65
2023/09/18 07:17:05;;;;;;;;;;;;;;;;;;5093218;28;856;-65
2023/09/18 07:19:32;;;;;;;;;;;;;;;;;;5093722;28;697;-64
2023/09/18 07:21:57;;;;;;;;;;;;;;;;;;5092974;28;867;-64
2023/09/18 07:24:24;;;;;;;;;;;;;;;;;;5093516;28;1014;-65
2023/09/18 07:26:49;;;;;;;;;;;;;;;;;;5092204;28;920;-64
2023/09/18 07:29:15;;;;;;;;;;;;;;;;;;5092106;28;813;-64
2023/09/18 07:31:43;;;;;;;;;;;;;;;;;;5093440;28;919;-64
2023/09/18 07:34:09;;;;;;;;;;;;;;;;;;5093102;28;1884;-65
2023/09/18 07:36:34;;;;;;;;;;;;;;;;;;5092593;28;899;-64
2023/09/18 07:39:00;;;;;;;;;;;;;;;;;;5093186;28;998;-64
2023/09/18 07:41:25;;;;;;;;;;;;;;;;;;5094253;28;840;-64
2023/09/18 07:43:50;;;;;;;;;;;;;;;;;;5093955;28;889;-64
2023/09/18 07:46:16;;;;;;;;;;;;;;;;;;5092054;28;1222;-64
2023/09/18 07:48:41;;;;;;;;;;;;;;;;;;5093378;28;904;-64
2023/09/18 07:51:10;;;;;;;;;;;;;;;;;;5092975;28;958;-64
2023/09/18 07:53:35;;;;;;;;;;;;;;;;;;5093868;28;908;-63
2023/09/18 07:56:01;;;;;;;;;;;;;;;;;;5092565;28;1953;-63
2023/09/18 07:58:27;;;;;;;;;;;;;;;;;;5093230;28;865;-63
2023/09/18 08:00:54;;;;;;;;;;;;;;;;;;5093056;28;991;-65
2023/09/18 08:03:19;;;;;;;;;;;;;;;;;;5092967;28;864;-63
2023/09/18 08:05:45;;;;;;;;;;;;;;;;;;5091048;28;975;-65
2023/09/18 08:08:10;;;;;;;;;;;;;;;;;;5090592;28;829;-63
2023/09/18 08:10:38;;;;;;;;;;;;;;;;;;5092396;28;924;-64
2023/09/18 08:13:04;;;;;;;;;;;;;;;;;;5091778;28;1207;-65
2023/09/18 08:15:29;;;;;;;;;;;;;;;;;;5092184;28;1967;-65
2023/09/18 08:17:55;;;;;;;;;;;;;;;;;;5091929;28;915;-65
2023/09/18 08:20:20;;;;;;;;;;;;;;;;;;5091019;28;1291;-65
2023/09/18 08:22:47;;;;;;;;;;;;;;;;;;5092376;28;950;-65
2023/09/18 08:25:13;;;;;;;;;;;;;;;;;;5092091;28;859;-65
2023/09/18 08:27:43;;;;;;;;;;;;;;;;;;5092628;28;848;-65
2023/09/18 08:30:10;;;;;;;;;;;;;;;;;;5092030;28;847;-65
2023/09/18 08:32:35;;;;;;;;;;;;;;;;;;5093488;28;992;-65
2023/09/18 08:35:01;;;;;;;;;;;;;;;;;;5091496;28;1963;-67
2023/09/18 08:37:27;;;;;;;;;;;;;;;;;;5093106;28;895;-67
2023/09/18 08:39:53;;;;;;;;;;;;;;;;;;5091028;28;876;-67
2023/09/18 08:42:20;;;;;;;;;;;;;;;;;;5093303;28;844;-67
2023/09/18 08:44:48;;;;;;;;;;;;;;;;;;5092711;28;935;-66
2023/09/18 08:47:14;;;;;;;;;;;;;;;;;;5091090;28;852;-66
2023/09/18 08:49:39;;;;;;;;;;;;;;;;;;5092597;28;887;-66
2023/09/18 08:52:06;;;;;;;;;;;;;;;;;;5091366;28;962;-66
2023/09/18 08:54:33;;;;;;;;;;;;;;;;;;5090611;28;1897;-67
2023/09/18 08:56:58;;;;;;;;;;;;;;;;;;5091006;28;812;-66
2023/09/18 08:59:24;;;;;;;;;;;;;;;;;;5090743;28;875;-66
2023/09/18 09:01:50;;;;;;;;;;;;;;;;;;5090245;28;1229;-66
2023/09/18 09:04:15;;;;;;;;;;;;;;;;;;5091108;28;899;-66
2023/09/18 09:06:40;;;;;;;;;;;;;;;;;;5091921;28;926;-66
2023/09/18 09:09:07;;;;;;;;;;;;;;;;;;5091068;28;833;-66
2023/09/18 09:11:33;;;;;;;;;;;;;;;;;;5091756;28;859;-66
2023/09/18 09:14:12;;;;;;;;;;;;;;;;;;5091290;28;1935;-66
2023/09/18 09:16:38;;;;;;;;;;;;;;;;;;5091849;28;808;-67
2023/09/18 09:19:04;;;;;;;;;;;;;;;;;;5091429;28;884;-66
2023/09/18 09:21:39;;;;;;;;;;;;;;;;;;5091204;28;1195;-66
2023/09/18 09:24:05;;;;;;;;;;;;;;;;;;5090229;28;853;-65
2023/09/18 09:26:30;;;;;;;;;;;;;;;;;;5091891;28;880;-66
2023/09/18 09:28:55;;;;;;;;;;;;;;;;;;5091580;28;1371;-66
2023/09/18 09:31:28;;;;;;;;;;;;;;;;;;5091246;28;832;-65
2023/09/18 09:33:53;;;;;;;;;;;;;;;;;;5091438;28;1874;-66
2023/09/18 09:36:19;;;;;;;;;;;;;;;;;;5089670;28;1305;-66
2023/09/18 09:38:44;;;;;;;;;;;;;;;;;;5091183;28;844;-66
2023/09/18 09:41:13;;;;;;;;;;;;;;;;;;5090324;28;907;-66
2023/09/18 09:43:41;;;;;;;;;;;;;;;;;;5091152;28;750;-66
2023/09/18 09:46:08;;;;;;;;;;;;;;;;;;5090557;28;888;-66
2023/09/18 09:48:33;;;;;;;;;;;;;;;;;;5090773;28;861;-66
2023/09/18 09:51:00;;;;;;;;;;;;;;;;;;5089326;28;809;-65
2023/09/18 09:53:46;;;;;;;;;;;;;;;;;;5091332;28;766;-66
2023/09/18 09:56:12;;;;;;;;;;;;;;;;;;5090037;28;1890;-66
2023/09/18 09:58:37;;;;;;;;;;;;;;;;;;5090783;28;895;-66
2023/09/18 10:01:08;;;;;;;;;;;;;;;;;;5089778;28;770;-66
2023/09/18 10:03:35;;;;;;;;;;;;;;;;;;5090909;28;956;-66
2023/09/18 10:06:01;;;;;;;;;;;;;;;;;;5089874;28;947;-66
2023/09/18 10:08:27;;;;;;;;;;;;;;;;;;5090848;28;899;-66
2023/09/18 10:10:54;;;;;;;;;;;;;;;;;;5089021;28;864;-66
2023/09/18 10:13:25;;;;;;;;;;;;;;;;;;5088231;28;1300;-66
2023/09/18 10:15:51;;;;;;;;;;;;;;;;;;5090657;28;2248;-66
2023/09/18 10:18:26;;;;;;;;;;;;;;;;;;5090218;28;938;-66
2023/09/18 10:20:57;;;;;;;;;;;;;;;;;;5091568;28;915;-66
2023/09/18 10:23:39;;;;;;;;;;;;;;;;;;5091990;28;930;-66
2023/09/18 10:26:05;;;;;;;;;;;;;;;;;;5089530;28;1424;-65
2023/09/18 10:28:31;;;;;;;;;;;;;;;;;;5091607;28;876;-66
2023/09/18 10:30:58;;;;;;;;;;;;;;;;;;5090902;28;898;-66
2023/09/18 10:33:24;;;;;;;;;;;;;;;;;;5073378;28;1531;-66
2023/09/18 10:35:50;;;;;;;;;;;;;;;;;;5090916;28;1898;-67
2023/09/18 10:38:16;;;;;;;;;;;;;;;;;;5090032;28;1006;-67
2023/09/18 10:40:43;;;;;;;;;;;;;;;;;;5090809;28;990;-66
2023/09/18 10:43:10;;;;;;;;;;;;;;;;;;5090464;28;939;-67
2023/09/18 10:45:36;;;;;;;;;;;;;;;;;;5089438;28;943;-66
2023/09/18 10:48:02;;;;;;;;;;;;;;;;;;5087117;28;694;-67
2023/09/18 10:50:29;;;;;;;;;;;;;;;;;;5089647;28;832;-67
2023/09/18 10:52:57;;;;;;;;;;;;;;;;;;5089744;28;900;-66
2023/09/18 10:55:23;;;;;;;;;;;;;;;;;;5087459;28;2429;-66
2023/09/18 10:57:56;;;;;;;;;;;;;;;;;;5089935;28;891;-67
2023/09/18 11:00:22;;;;;;;;;;;;;;;;;;5088233;28;974;-66
2023/09/18 11:02:54;;;;;;;;;;;;;;;;;;5093987;28;1022;-67
2023/09/18 11:05:29;;;;;;;;;;;;;;;;;;5094764;28;1058;-67
2023/09/18 11:08:13;;;;;;;;;;;;;;;;;;5094666;28;860;-67
2023/09/18 11:10:54;;;;;;;;;;;;;;;;;;5094547;28;769;-66
2023/09/18 11:13:28;;;;;;;;;;;;;;;;;;5092942;28;1156;-67
2023/09/18 11:15:58;;;;;;;;;;;;;;;;;;5094259;28;1926;-67
2023/09/18 11:18:23;;;;;;;;;;;;;;;;;;5093726;28;804;-66
2023/09/18 11:21:06;;;;;;;;;;;;;;;;;;5093604;28;962;-65
2023/09/18 11:23:36;;;;;;;;;;;;;;;;;;5094004;28;904;-67
2023/09/18 11:26:04;;;;;;;;;;;;;;;;;;5093365;28;796;-66
2023/09/18 11:28:33;;;;;;;;;;;;;;;;;;5093335;28;856;-66
2023/09/18 11:31:00;;;;;;;;;;;;;;;;;;5093025;28;884;-66
2023/09/18 11:33:43;;;;;;;;;;;;;;;;;;5093870;28;821;-67
2023/09/18 11:36:12;;;;;;;;;;;;;;;;;;5093366;28;1972;-67
2023/09/18 11:38:54;;;;;;;;;;;;;;;;;;5093412;28;985;-66
2023/09/18 11:41:25;;;;;;;;;;;;;;;;;;5092840;28;907;-66
2023/09/18 11:43:50;;;;;;;;;;;;;;;;;;5093435;28;848;-66
2023/09/18 11:46:19;;;;;;;;;;;;;;;;;;5093056;28;919;-64
2023/09/18 11:48:46;;;;;;;;;;;;;;;;;;5093663;28;820;-64
2023/09/18 11:51:13;;;;;;;;;;;;;;;;;;5093061;28;900;-65
2023/09/18 11:53:40;;;;;;;;;;;;;;;;;;5094055;28;950;-65
2023/09/18 11:56:14;;;;;;;;;;;;;;;;;;5093461;28;1959;-65
2023/09/18 11:58:50;;;;;;;;;;;;;;;;;;5095073;28;900;-64
2023/09/18 12:01:15;;;;;;;;;;;;;;;;;;5095883;28;836;-65
2023/09/18 12:03:41;;;;;;;;;;;;;;;;;;5095267;28;911;-65
2023/09/18 12:06:08;;;;;;;;;;;;;;;;;;5093827;28;813;-66
2023/09/18 12:08:35;;;;;;;;;;;;;;;;;;5094571;28;918;-66
2023/09/18 12:11:05;;;;;;;;;;;;;;;;;;5094015;28;848;-65
2023/09/18 12:13:30;;;;;;;;;;;;;;;;;;5093137;28;1225;-66
2023/09/18 12:15:57;;;;;;;;;;;;;;;;;;5093769;28;1981;-66
2023/09/18 12:18:24;;;;;;;;;;;;;;;;;;5091628;28;1506;-66
2023/09/18 12:20:50;;;;;;;;;;;;;;;;;;5092805;28;895;-66
2023/09/18 12:23:20;;;;;;;;;;;;;;;;;;5092391;28;769;-67
2023/09/18 12:25:50;;;;;;;;;;;;;;;;;;5093031;28;958;-66
2023/09/18 12:28:17;;;;;;;;;;;;;;;;;;5092796;28;809;-66
2023/09/18 12:30:43;;;;;;;;;;;;;;;;;;5093367;28;820;-67
2023/09/18 12:33:08;;;;;;;;;;;;;;;;;;5091199;28;1333;-66
2023/09/18 12:35:34;;;;;;;;;;;;;;;;;;5092645;28;1898;-66
2023/09/18 12:38:04;;;;;;;;;;;;;;;;;;5092243;28;836;-66
2023/09/18 12:40:32;;;;;;;;;;;;;;;;;;5092818;28;856;-66
2023/09/18 12:42:59;;;;;;;;;;;;;;;;;;5090941;28;931;-66
2023/09/18 12:45:25;;;;;;;;;;;;;;;;;;5091485;28;876;-66
2023/09/18 12:47:51;;;;;;;;;;;;;;;;;;5092337;28;976;-66
2023/09/18 12:50:16;;;;;;;;;;;;;;;;;;5091661;28;854;-66
2023/09/18 12:52:41;;;;;;;;;;;;;;;;;;5091947;28;938;-66
2023/09/18 12:55:07;;;;;;;;;;;;;;;;;;5089770;28;1905;-64
2023/09/18 12:57:33;;;;;;;;;;;;;;;;;;5088467;28;1763;-65
2023/09/18 12:59:58;;;;;;;;;;;;;;;;;;5091383;28;947;-65
2023/09/18 13:02:24;;;;;;;;;;;;;;;;;;5090759;28;793;-66
2023/09/18 13:04:53;;;;;;;;;;;;;;;;;;5091114;28;1398;-65
2023/09/18 13:07:18;;;;;;;;;;;;;;;;;;5091149;28;867;-65
2023/09/18 13:09:58;;;;;;;;;;;;;;;;;;5073517;28;1163;-66
2023/09/18 13:12:24;;;;;;;;;;;;;;;;;;5090379;28;1353;-66
2023/09/18 13:15:04;;;;;;;;;;;;;;;;;;5090687;28;1902;-66
2023/09/18 13:17:37;;;;;;;;;;;;;;;;;;5090072;28;885;-66
2023/09/18 13:20:07;;;;;;;;;;;;;;;;;;5091367;28;856;-66
2023/09/18 13:22:32;;;;;;;;;;;;;;;;;;5090124;28;1364;-66
2023/09/18 13:24:58;;;;;;;;;;;;;;;;;;5089273;28;828;-66
2023/09/18 13:27:24;;;;;;;;;;;;;;;;;;5090279;28;1783;-66
2023/09/18 13:29:49;;;;;;;;;;;;;;;;;;5072901;28;1219;-66
2023/09/18 13:32:14;;;;;;;;;;;;;;;;;;5091924;28;821;-66
2023/09/18 13:34:40;;;;;;;;;;;;;;;;;;5092560;28;1907;-66
2023/09/18 13:37:05;;;;;;;;;;;;;;;;;;5091837;28;849;-66
2023/09/18 13:39:30;;;;;;;;;;;;;;;;;;5073661;28;1635;-66
2023/09/18 13:41:56;;;;;;;;;;;;;;;;;;5091860;28;990;-66
2023/09/18 13:44:22;;;;;;;;;;;;;;;;;;5073819;28;1543;-66
2023/09/18 13:46:47;;;;;;;;;;;;;;;;;;5091799;28;904;-66
2023/09/18 13:49:12;;;;;;;;;;;;;;;;;;5089708;28;1218;-67
2023/09/18 13:51:38;;;;;;;;;;;;;;;;;;5073037;28;1462;-66
2023/09/18 13:54:03;;;;;;;;;;;;;;;;;;5088736;28;1889;-66
2023/09/18 13:56:29;;;;;;;;;;;;;;;;;;5089511;28;1361;-66
2023/09/18 13:58:57;;;;;;;;;;;;;;;;;;5091681;28;872;-66
2023/09/18 14:01:24;;;;;;;;;;;;;;;;;;5090750;28;915;-66
2023/09/18 14:03:50;;;;;;;;;;;;;;;;;;5091101;28;893;-66
2023/09/18 14:06:16;;;;;;;;;;;;;;;;;;5089768;28;892;-66
2023/09/18 14:08:41;;;;;;;;;;;;;;;;;;5090159;28;843;-66
2023/09/18 14:11:06;;;;;;;;;;;;;;;;;;5097992;28;1183;-66
2023/09/18 14:13:32;;;;;;;;;;;;;;;;;;5107482;28;1218;-66
2023/09/18 14:15:58;;;;;;;;;;;;;;;;;;5091134;28;1910;-66
2023/09/18 14:18:23;;;;;;;;;;;;;;;;;;5091109;28;938;-66
2023/09/18 14:20:48;;;;;;;;;;;;;;;;;;5091868;28;1006;-66
2023/09/18 14:23:14;;;;;;;;;;;;;;;;;;5090756;28;832;-66
2023/09/18 14:25:39;;;;;;;;;;;;;;;;;;5091470;28;910;-66
2023/09/18 14:28:04;;;;;;;;;;;;;;;;;;5089651;28;809;-66
2023/09/18 14:30:31;;;;;;;;;;;;;;;;;;5090929;28;876;-67
2023/09/18 14:32:56;;;;;;;;;;;;;;;;;;5091525;28;871;-67
2023/09/18 14:35:23;;;;;;;;;;;;;;;;;;5090995;28;1914;-67
2023/09/18 14:37:48;;;;;;;;;;;;;;;;;;5093688;28;817;-67
2023/09/18 14:40:14;;;;;;;;;;;;;;;;;;5094743;28;1069;-67
2023/09/18 14:42:40;;;;;;;;;;;;;;;;;;5113973;28;1210;-67
2023/09/18 14:45:06;;;;;;;;;;;;;;;;;;5113998;28;1408;-67
2023/09/18 14:47:31;;;;;;;;;;;;;;;;;;5114888;28;1302;-67
2023/09/18 14:49:58;;;;;;;;;;;;;;;;;;5098389;28;1341;-66
2023/09/18 14:52:25;;;;;;;;;;;;;;;;;;5115584;28;848;-66
2023/09/18 14:54:51;;;;;;;;;;;;;;;;;;5114509;28;1890;-66
2023/09/18 14:57:17;;;;;;;;;;;;;;;;;;5116933;27;831;-66
2023/09/18 14:59:47;;;;;;;;;;;;;;;;;;5114706;28;1214;-67
2023/09/18 15:02:12;;;;;;;;;;;;;;;;;;5114498;28;950;-66
2023/09/18 15:04:37;;;;;;;;;;;;;;;;;;5114109;28;1295;-67
2023/09/18 15:07:03;;;;;;;;;;;;;;;;;;5097260;28;1393;-67
2023/09/18 15:09:28;;;;;;;;;;;;;;;;;;5114932;28;844;-67
2023/09/18 15:11:53;;;;;;;;;;;;;;;;;;5116743;28;1019;-67
2023/09/18 15:14:19;;;;;;;;;;;;;;;;;;5113357;28;1968;-66
2023/09/18 15:16:44;;;;;;;;;;;;;;;;;;5097811;28;1591;-66
2023/09/18 15:19:10;;;;;;;;;;;;;;;;;;5116007;28;848;-66
2023/09/18 15:21:36;;;;;;;;;;;;;;;;;;5096785;28;1262;-66
2023/09/18 15:24:03;;;;;;;;;;;;;;;;;;5114713;28;837;-66
2023/09/18 15:26:29;;;;;;;;;;;;;;;;;;5115862;28;879;-67
2023/09/18 15:28:54;;;;;;;;;;;;;;;;;;5113745;28;971;-66
2023/09/18 15:31:19;;;;;;;;;;;;;;;;;;5113166;28;1432;-65
2023/09/18 15:33:45;;;;;;;;;;;;;;;;;;5114888;28;871;-66
2023/09/18 15:36:10;;;;;;;;;;;;;;;;;;5114747;28;1941;-64
2023/09/18 15:38:36;;;;;;;;;;;;;;;;;;5116252;28;923;-67
2023/09/18 15:41:02;;;;;;;;;;;;;;;;;;5115366;28;891;-67
2023/09/18 15:43:28;;;;;;;;;;;;;;;;;;5097449;28;1233;-67
2023/09/18 15:45:57;;;;;;;;;;;;;;;;;;5114936;28;1408;-68
2023/09/18 15:48:22;;;;;;;;;;;;;;;;;;5113840;28;1264;-67
2023/09/18 15:50:47;;;;;;;;;;;;;;;;;;5114073;28;762;-67
2023/09/18 15:53:13;;;;;;;;;;;;;;;;;;5112663;28;828;-67
2023/09/18 15:55:39;;;;;;;;;;;;;;;;;;5114266;28;1964;-67
2023/09/18 15:58:04;;;;;;;;;;;;;;;;;;5113145;28;832;-66
2023/09/18 16:00:29;;;;;;;;;;;;;;;;;;5114015;28;1009;-67
2023/09/18 16:02:55;;;;;;;;;;;;;;;;;;5114799;28;867;-67
2023/09/18 16:05:25;;;;;;;;;;;;;;;;;;5112805;28;1065;-66
2023/09/18 16:07:51;;;;;;;;;;;;;;;;;;5113360;28;1365;-67
2023/09/18 16:10:17;;;;;;;;;;;;;;;;;;5113950;28;856;-67
2023/09/18 16:13:02;;;;;;;;;;;;;;;;;;5114886;28;1309;-67
2023/09/18 16:15:28;;;;;;;;;;;;;;;;;;5112309;28;1913;-67
2023/09/18 16:17:54;;;;;;;;;;;;;;;;;;5114127;28;835;-67
2023/09/18 16:20:20;;;;;;;;;;;;;;;;;;5113590;28;867;-66
2023/09/18 16:22:46;;;;;;;;;;;;;;;;;;5112202;28;1221;-66
2023/09/18 16:25:12;;;;;;;;;;;;;;;;;;5111654;28;1286;-67
2023/09/18 16:27:37;;;;;;;;;;;;;;;;;;5113269;28;1121;-67
2023/09/18 16:30:04;;;;;;;;;;;;;;;;;;5111498;28;1250;-67
2023/09/18 16:32:30;;;;;;;;;;;;;;;;;;5094777;28;1230;-67
2023/09/18 16:34:55;;;;;;;;;;;;;;;;;;5112118;28;1906;-67
2023/09/18 16:37:21;;;;;;;;;;;;;;;;;;5113165;28;845;-67
2023/09/18 16:39:46;;;;;;;;;;;;;;;;;;5113260;28;817;-67
2023/09/18 16:42:11;;;;;;;;;;;;;;;;;;5112670;28;822;-67
2023/09/18 16:44:39;;;;;;;;;;;;;;;;;;5112461;28;971;-67
2023/09/18 16:47:04;;;;;;;;;;;;;;;;;;5110882;28;1569;-67
2023/09/18 16:49:29;;;;;;;;;;;;;;;;;;5112886;28;960;-66
2023/09/18 16:51:54;;;;;;;;;;;;;;;;;;5111843;28;832;-67
2023/09/18 16:54:23;;;;;;;;;;;;;;;;;;5110991;28;1898;-67
2023/09/18 16:56:48;;;;;;;;;;;;;;;;;;5112742;28;923;-66
2023/09/18 16:59:13;;;;;;;;;;;;;;;;;;5112084;28;899;-66
2023/09/18 17:01:39;;;;;;;;;;;;;;;;;;5112288;28;844;-66
2023/09/18 17:04:04;;;;;;;;;;;;;;;;;;5112403;28;908;-67
2023/09/18 17:06:34;;;;;;;;;;;;;;;;;;5113537;28;871;-67
2023/09/18 17:08:59;;;;;;;;;;;;;;;;;;5112401;28;824;-67